Deatsville, Kentucky
Current Conditions -  °F | °C
As of 12:56 AM on Tuesday 27 Jan 2015 (Local Time) from KSDF Reporting Station
Light Snow Light Snow  
Wind Chill: 30°   Ceiling: 1500
Heat Index: 30°   Visibility: 3mi
Dew Point: 26°   Wind: 3mph
Humidity: 85%   Direction: 300°WNW
Pressure: 29.93"   Gusts: NA
Location:  37.9212°N, 85.4864°W
Report Text: KSDF 270556Z 30003KT 3SM -SN BR SCT008 OVC015 M01/M03 A2993 RMK AO2 SLP138 P0000 60000 T10111033 10000 21011 58010
Loading
Personal Weather Stations






























Interactive Weather Map New forecast layout! Learn more

10-Day Weather Forecast

Advertisements
Track Severe Weather on mobile